Time;durP1;ratioP1;P1;durP2;ratioP2;P2;SDS_P1;SDS_P2;PMS_P1;PMS_P2;Temp;Humidity;BMP_temperature;BMP_pressure;BME280_temperature;BME280_humidity;BME280_pressure;Samples;Min_cycle;Max_cycle;Signal;HPM_P1;HPM_P2
2022/06/01 00:00:23;;;;;;;;;;;17.20;53.90;;;;;;4999707;28;19949;-86
2022/06/01 00:02:49;;;;;;;;;;;17.30;53.80;;;;;;5040948;28;19917;-86
2022/06/01 00:05:15;;;;;;;;;;;17.30;53.80;;;;;;5026399;28;19913;-87
2022/06/01 00:07:40;;;;;;;;;;;17.30;53.90;;;;;;5038374;28;19996;-87
2022/06/01 00:10:06;;;;;;;;;;;17.20;53.90;;;;;;5017415;28;19972;-87
2022/06/01 00:12:34;;;;;;;;;;;17.20;53.90;;;;;;5017760;28;19917;-88
2022/06/01 00:15:00;;;;;;;;;;;17.20;53.90;;;;;;5020536;28;19921;-87
2022/06/01 00:17:26;;;;;;;;;;;17.20;53.90;;;;;;5027799;28;19924;-86
2022/06/01 00:19:51;;;;;;;;;;;17.20;53.90;;;;;;5017753;28;19921;-87
2022/06/01 00:22:17;;;;;;;;;;;17.10;53.90;;;;;;5031631;28;19952;-86
2022/06/01 00:24:43;;;;;;;;;;;17.10;53.90;;;;;;5016780;28;20389;-86
2022/06/01 00:27:09;;;;;;;;;;;17.10;53.90;;;;;;5012832;28;19996;-86
2022/06/01 00:29:35;;;;;;;;;;;17.00;53.90;;;;;;5008900;28;19913;-87
2022/06/01 00:32:01;;;;;;;;;;;17.00;54.00;;;;;;5016463;28;19920;-87
2022/06/01 00:34:26;;;;;;;;;;;16.90;54.00;;;;;;5016473;28;20738;-87
2022/06/01 00:36:52;;;;;;;;;;;16.90;54.00;;;;;;5019697;28;20271;-86
2022/06/01 00:39:17;;;;;;;;;;;16.80;54.00;;;;;;5032079;28;19913;-86
2022/06/01 00:41:43;;;;;;;;;;;16.70;54.10;;;;;;5035601;28;20262;-87
2022/06/01 00:44:08;;;;;;;;;;;16.70;54.10;;;;;;5033925;28;19956;-87
2022/06/01 00:46:34;;;;;;;;;;;16.70;54.10;;;;;;5016939;28;19913;-86
2022/06/01 00:49:01;;;;;;;;;;;16.60;54.20;;;;;;5034594;28;19917;-86
2022/06/01 00:51:27;;;;;;;;;;;16.50;54.40;;;;;;5034144;28;19913;-87
2022/06/01 00:53:54;;;;;;;;;;;16.50;54.40;;;;;;5017406;28;20434;-87
2022/06/01 00:56:21;;;;;;;;;;;16.40;54.50;;;;;;5026355;28;19924;-87
2022/06/01 00:58:48;;;;;;;;;;;16.40;54.50;;;;;;5034212;28;20428;-86
2022/06/01 01:01:16;;;;;;;;;;;16.40;54.50;;;;;;5021714;28;20332;-86
2022/06/01 01:03:43;;;;;;;;;;;16.40;54.60;;;;;;5037038;28;19913;-87
2022/06/01 01:06:28;;;;;;;;;;;16.40;54.70;;;;;;5034601;28;19921;-88
2022/06/01 01:08:54;;;;;;;;;;;16.40;54.70;;;;;;5044497;28;19913;-88
2022/06/01 01:11:23;;;;;;;;;;;16.40;54.70;;;;;;5025461;28;19936;-88
2022/06/01 01:13:49;;;;;;;;;;;16.30;54.70;;;;;;5021232;28;19928;-87
2022/06/01 01:16:16;;;;;;;;;;;16.30;54.70;;;;;;5043843;28;19917;-87
2022/06/01 01:18:43;;;;;;;;;;;16.40;54.70;;;;;;5018389;28;19920;-86
2022/06/01 01:21:21;;;;;;;;;;;16.40;54.70;;;;;;5015777;28;19944;-86
2022/06/01 01:24:07;;;;;;;;;;;16.40;54.70;;;;;;5017469;28;19920;-87
2022/06/01 01:26:33;;;;;;;;;;;16.50;54.70;;;;;;5017914;28;19971;-87
2022/06/01 01:28:59;;;;;;;;;;;16.50;54.70;;;;;;5033021;28;20282;-88
2022/06/01 01:31:24;;;;;;;;;;;16.50;54.70;;;;;;5017137;28;19913;-88
2022/06/01 01:33:51;;;;;;;;;;;16.50;54.60;;;;;;5032740;28;19923;-88
2022/06/01 01:36:19;;;;;;;;;;;16.60;54.60;;;;;;5033336;28;19924;-87
2022/06/01 01:38:53;;;;;;;;;;;16.60;54.50;;;;;;5033214;28;19987;-87
2022/06/01 01:41:30;;;;;;;;;;;16.60;54.60;;;;;;5017722;28;19921;-87
2022/06/01 01:44:00;;;;;;;;;;;16.60;54.50;;;;;;5013000;28;19913;-87
2022/06/01 01:46:27;;;;;;;;;;;16.60;54.30;;;;;;5033132;28;19913;-88
2022/06/01 01:48:53;;;;;;;;;;;16.70;54.30;;;;;;5033831;28;20293;-87
2022/06/01 01:51:19;;;;;;;;;;;16.70;54.40;;;;;;5015334;28;19917;-86
2022/06/01 01:53:45;;;;;;;;;;;16.70;54.20;;;;;;5016097;28;19924;-86
2022/06/01 01:56:23;;;;;;;;;;;16.70;54.30;;;;;;5034891;28;19996;-86
2022/06/01 01:59:07;;;;;;;;;;;16.70;54.20;;;;;;5035323;28;19920;-87
2022/06/01 02:01:48;;;;;;;;;;;16.70;54.30;;;;;;5034896;28;20362;-87
2022/06/01 02:07:24;;;;;;;;;;;16.60;54.20;;;;;;5024812;28;20380;-87
2022/06/01 02:12:43;;;;;;;;;;;16.50;54.30;;;;;;5035003;28;20280;-86
2022/06/01 02:15:18;;;;;;;;;;;16.40;54.30;;;;;;5014752;28;20296;-86
2022/06/01 02:17:49;;;;;;;;;;;16.40;54.40;;;;;;5016348;28;19917;-87
2022/06/01 02:20:18;;;;;;;;;;;16.30;54.50;;;;;;5014831;28;19933;-87
2022/06/01 02:22:44;;;;;;;;;;;16.40;54.50;;;;;;5034919;28;20012;-86
2022/06/01 02:25:11;;;;;;;;;;;16.30;54.50;;;;;;5035022;28;19947;-87
2022/06/01 02:27:37;;;;;;;;;;;16.30;54.50;;;;;;5015534;28;20396;-87
2022/06/01 02:30:10;;;;;;;;;;;16.30;54.50;;;;;;5014700;28;19960;-87
2022/06/01 02:32:55;;;;;;;;;;;16.30;54.50;;;;;;5026039;28;19917;-86
2022/06/01 02:35:21;;;;;;;;;;;16.30;54.50;;;;;;5033521;28;21523;-86
2022/06/01 02:37:48;;;;;;;;;;;16.30;54.50;;;;;;5015528;28;19913;-86
2022/06/01 02:40:17;;;;;;;;;;;16.30;54.50;;;;;;5014435;28;20635;-87
2022/06/01 02:42:43;;;;;;;;;;;16.30;54.50;;;;;;5038326;28;19913;-86
2022/06/01 02:45:09;;;;;;;;;;;16.30;54.50;;;;;;5033183;28;19925;-86
2022/06/01 02:47:37;;;;;;;;;;;16.20;54.50;;;;;;5033442;28;19913;-86
2022/06/01 02:50:04;;;;;;;;;;;16.20;54.50;;;;;;5014954;28;20297;-87
2022/06/01 02:52:29;;;;;;;;;;;16.10;54.40;;;;;;5019891;28;20292;-86
2022/06/01 02:54:55;;;;;;;;;;;16.00;54.50;;;;;;5031565;28;19925;-86
2022/06/01 02:57:21;;;;;;;;;;;15.90;54.60;;;;;;5015109;28;19952;-86
2022/06/01 02:59:46;;;;;;;;;;;15.80;54.70;;;;;;5009301;28;19926;-86
2022/06/01 03:02:12;;;;;;;;;;;15.70;54.60;;;;;;5014029;28;19917;-87
2022/06/01 03:04:38;;;;;;;;;;;15.60;54.60;;;;;;5034648;28;19924;-87
2022/06/01 03:07:04;;;;;;;;;;;15.60;54.70;;;;;;5033685;28;19958;-85
2022/06/01 03:09:30;;;;;;;;;;;15.50;54.80;;;;;;5015897;28;20015;-86
2022/06/01 03:11:56;;;;;;;;;;;15.50;54.90;;;;;;5032869;28;19913;-86
2022/06/01 03:14:21;;;;;;;;;;;15.50;55.10;;;;;;5013638;28;20478;-86
2022/06/01 03:16:46;;;;;;;;;;;15.50;55.10;;;;;;5026221;28;19913;-86
2022/06/01 03:19:12;;;;;;;;;;;15.50;55.20;;;;;;5033289;28;19922;-87
2022/06/01 03:21:40;;;;;;;;;;;15.50;55.20;;;;;;5016045;28;19914;-87
2022/06/01 03:24:06;;;;;;;;;;;15.40;55.20;;;;;;5035585;28;19952;-86
2022/06/01 03:26:31;;;;;;;;;;;15.40;55.30;;;;;;5033333;28;19921;-87
2022/06/01 03:28:57;;;;;;;;;;;15.40;55.20;;;;;;5032763;28;19917;-85
2022/06/01 03:31:22;;;;;;;;;;;15.30;55.30;;;;;;5011765;28;20543;-86
2022/06/01 03:33:48;;;;;;;;;;;15.20;55.20;;;;;;5015192;28;19917;-86
2022/06/01 03:36:13;;;;;;;;;;;15.20;55.30;;;;;;5016017;28;20413;-86
2022/06/01 03:38:39;;;;;;;;;;;15.10;55.40;;;;;;5016226;28;19917;-86
2022/06/01 03:41:04;;;;;;;;;;;15.10;55.40;;;;;;5032306;28;19932;-86
2022/06/01 03:43:30;;;;;;;;;;;15.00;55.50;;;;;;5018580;28;20015;-86
2022/06/01 03:45:56;;;;;;;;;;;14.90;55.60;;;;;;5016404;28;19917;-85
2022/06/01 03:48:30;;;;;;;;;;;14.90;55.70;;;;;;5000066;28;20003;-86
2022/06/01 03:50:56;;;;;;;;;;;14.80;55.90;;;;;;5017021;28;19957;-86
2022/06/01 03:53:23;;;;;;;;;;;14.80;56.00;;;;;;5016803;28;20008;-86
2022/06/01 03:55:49;;;;;;;;;;;14.80;56.20;;;;;;4999463;28;19995;-86
2022/06/01 03:58:15;;;;;;;;;;;14.80;56.40;;;;;;5015387;28;19921;-86
2022/06/01 04:01:01;;;;;;;;;;;14.80;56.70;;;;;;4999140;28;20404;-86
2022/06/01 04:03:26;;;;;;;;;;;14.90;56.90;;;;;;5015771;28;19913;-86
2022/06/01 04:05:52;;;;;;;;;;;15.00;57.40;;;;;;4998876;28;19948;-86
2022/06/01 04:08:17;;;;;;;;;;;15.20;58.30;;;;;;4999003;28;19913;-87
2022/06/01 04:10:43;;;;;;;;;;;15.50;59.10;;;;;;5015464;28;19968;-86
2022/06/01 04:13:09;;;;;;;;;;;15.80;59.80;;;;;;4998881;28;19914;-86
2022/06/01 04:15:35;;;;;;;;;;;16.20;60.00;;;;;;4999447;28;20250;-86
2022/06/01 04:18:00;;;;;;;;;;;16.50;59.20;;;;;;4999065;28;19914;-87
2022/06/01 04:20:26;;;;;;;;;;;16.60;58.20;;;;;;5015642;28;20012;-86
2022/06/01 04:22:54;;;;;;;;;;;16.80;58.40;;;;;;5016842;28;20342;-86
2022/06/01 04:25:21;;;;;;;;;;;17.10;58.80;;;;;;5016754;28;19941;-86
2022/06/01 04:27:46;;;;;;;;;;;17.50;59.40;;;;;;5015995;28;19929;-86
2022/06/01 04:30:14;;;;;;;;;;;17.90;59.60;;;;;;5016228;28;19922;-86
2022/06/01 04:32:39;;;;;;;;;;;18.40;59.60;;;;;;5033179;28;19913;-87
2022/06/01 04:35:06;;;;;;;;;;;18.80;59.60;;;;;;5024473;28;19925;-87
2022/06/01 04:37:31;;;;;;;;;;;19.30;59.60;;;;;;5034969;28;20289;-88
2022/06/01 04:39:57;;;;;;;;;;;19.80;59.30;;;;;;5016950;28;19923;-87
2022/06/01 04:42:22;;;;;;;;;;;20.30;59.20;;;;;;5037130;28;19913;-86
2022/06/01 04:44:48;;;;;;;;;;;20.70;58.80;;;;;;5035300;28;19924;-87
2022/06/01 04:47:13;;;;;;;;;;;21.10;57.50;;;;;;5034028;28;19944;-86
2022/06/01 04:49:39;;;;;;;;;;;21.50;56.80;;;;;;5018364;28;19925;-86
2022/06/01 04:52:05;;;;;;;;;;;21.90;56.10;;;;;;5015616;28;19909;-87
2022/06/01 04:54:31;;;;;;;;;;;22.30;55.50;;;;;;5008760;28;20362;-87
2022/06/01 04:56:56;;;;;;;;;;;22.70;55.80;;;;;;5015465;28;19923;-87
2022/06/01 04:59:22;;;;;;;;;;;23.10;55.50;;;;;;5033588;28;19944;-86
2022/06/01 05:01:47;;;;;;;;;;;23.50;54.40;;;;;;5034119;28;20415;-87
2022/06/01 05:04:13;;;;;;;;;;;23.90;53.50;;;;;;5035236;28;19940;-86
2022/06/01 05:06:39;;;;;;;;;;;24.20;53.20;;;;;;5034899;28;19916;-87
2022/06/01 05:09:04;;;;;;;;;;;24.70;52.80;;;;;;5035173;28;19936;-87
2022/06/01 05:11:30;;;;;;;;;;;25.10;52.30;;;;;;5033377;28;19932;-86
2022/06/01 05:13:55;;;;;;;;;;;25.50;52.20;;;;;;5028111;28;19916;-86
2022/06/01 05:16:21;;;;;;;;;;;26.00;51.10;;;;;;5019681;28;20007;-86
2022/06/01 05:18:46;;;;;;;;;;;26.40;50.80;;;;;;5034226;28;19924;-86
2022/06/01 05:21:12;;;;;;;;;;;26.80;49.60;;;;;;5023050;28;19968;-87
2022/06/01 05:23:37;;;;;;;;;;;27.30;47.80;;;;;;5022548;28;19917;-87
2022/06/01 05:26:03;;;;;;;;;;;27.50;46.10;;;;;;5036914;28;19917;-87
2022/06/01 05:28:29;;;;;;;;;;;27.50;44.80;;;;;;5034846;28;19939;-87
2022/06/01 05:30:58;;;;;;;;;;;27.60;45.40;;;;;;5024780;28;20408;-87
2022/06/01 05:33:24;;;;;;;;;;;27.90;44.80;;;;;;5036152;28;19931;-87
2022/06/01 05:35:49;;;;;;;;;;;28.20;44.10;;;;;;5025262;28;19995;-87
2022/06/01 05:38:15;;;;;;;;;;;28.50;43.80;;;;;;5037035;28;19913;-86
2022/06/01 05:40:40;;;;;;;;;;;28.80;44.00;;;;;;5024922;28;19970;-87
2022/06/01 05:43:07;;;;;;;;;;;29.20;43.60;;;;;;5037288;28;20027;-88
2022/06/01 05:45:33;;;;;;;;;;;29.70;43.60;;;;;;5020845;28;19917;-87
2022/06/01 05:47:58;;;;;;;;;;;30.10;40.40;;;;;;5027129;28;20020;-86
2022/06/01 05:50:24;;;;;;;;;;;30.30;39.10;;;;;;5023185;28;19917;-86
2022/06/01 05:52:49;;;;;;;;;;;30.50;38.60;;;;;;5021997;28;19913;-86
2022/06/01 05:55:15;;;;;;;;;;;30.70;38.80;;;;;;5023640;28;20412;-87
2022/06/01 05:57:40;;;;;;;;;;;31.10;37.70;;;;;;5016276;28;19948;-86
2022/06/01 06:00:07;;;;;;;;;;;31.30;36.10;;;;;;5028627;28;19925;-87
2022/06/01 06:02:33;;;;;;;;;;;31.70;36.20;;;;;;5033275;28;19913;-88
2022/06/01 06:04:58;;;;;;;;;;;32.10;35.60;;;;;;5036133;28;19986;-87
2022/06/01 06:07:24;;;;;;;;;;;32.50;34.80;;;;;;5033814;28;19913;-86
2022/06/01 06:09:49;;;;;;;;;;;32.80;33.90;;;;;;5024148;28;19921;-87
2022/06/01 06:12:16;;;;;;;;;;;33.30;32.80;;;;;;5022650;28;19919;-87
2022/06/01 06:14:42;;;;;;;;;;;33.60;32.20;;;;;;5020071;28;19928;-87
2022/06/01 06:17:07;;;;;;;;;;;33.80;30.50;;;;;;5002342;28;19974;-86
2022/06/01 06:19:33;;;;;;;;;;;33.80;29.70;;;;;;5031105;28;19960;-86
2022/06/01 06:21:58;;;;;;;;;;;33.70;28.80;;;;;;5014709;28;19924;-86
2022/06/01 06:24:24;;;;;;;;;;;33.50;28.70;;;;;;5034318;28;19917;-87
2022/06/01 06:26:50;;;;;;;;;;;33.40;28.20;;;;;;5029463;28;19948;-87
2022/06/01 06:29:16;;;;;;;;;;;33.40;28.60;;;;;;5026098;28;19948;-87
2022/06/01 06:31:42;;;;;;;;;;;33.60;28.40;;;;;;5034076;28;19963;-87
2022/06/01 06:34:09;;;;;;;;;;;33.80;27.20;;;;;;5034242;28;19925;-88
2022/06/01 06:36:35;;;;;;;;;;;33.60;27.20;;;;;;5033802;28;19936;-87
2022/06/01 06:39:00;;;;;;;;;;;33.30;27.20;;;;;;5033720;28;19913;-87
2022/06/01 06:41:26;;;;;;;;;;;33.20;27.40;;;;;;5032553;28;20304;-87
2022/06/01 06:43:52;;;;;;;;;;;33.00;27.40;;;;;;5019096;28;19910;-87
2022/06/01 06:46:18;;;;;;;;;;;32.80;27.60;;;;;;5037653;28;19917;-88
2022/06/01 06:48:45;;;;;;;;;;;32.80;27.60;;;;;;5018900;28;20002;-88
2022/06/01 06:51:12;;;;;;;;;;;33.00;28.00;;;;;;5034164;28;19917;-87
2022/06/01 06:53:37;;;;;;;;;;;33.20;27.40;;;;;;5030649;28;19919;-87
2022/06/01 06:56:03;;;;;;;;;;;33.40;27.10;;;;;;5033726;28;20008;-87
2022/06/01 06:58:29;;;;;;;;;;;33.60;26.90;;;;;;5035947;28;19917;-86
2022/06/01 07:00:54;;;;;;;;;;;33.80;26.60;;;;;;5034907;28;19917;-86
2022/06/01 07:03:20;;;;;;;;;;;33.80;25.70;;;;;;5033542;28;19987;-86
2022/06/01 07:08:29;;;;;;;;;;;33.50;24.50;;;;;;5031208;28;19963;-87
2022/06/01 07:10:55;;;;;;;;;;;33.30;25.10;;;;;;5017035;28;19957;-86
2022/06/01 07:13:21;;;;;;;;;;;33.10;24.90;;;;;;5019069;28;19920;-88
2022/06/01 07:15:47;;;;;;;;;;;32.80;25.30;;;;;;5021072;28;20374;-87
2022/06/01 07:18:13;;;;;;;;;;;32.70;25.30;;;;;;5021513;28;19941;-88
2022/06/01 07:20:38;;;;;;;;;;;32.60;25.50;;;;;;5015541;28;20289;-87
2022/06/01 07:23:04;;;;;;;;;;;32.60;25.80;;;;;;5031125;28;20408;-87
2022/06/01 07:25:29;;;;;;;;;;;32.60;26.00;;;;;;5033324;28;20392;-87
2022/06/01 07:27:55;;;;;;;;;;;32.60;25.90;;;;;;5024898;28;20419;-87
2022/06/01 07:30:21;;;;;;;;;;;32.50;26.00;;;;;;5017072;28;19928;-87
2022/06/01 07:32:47;;;;;;;;;;;32.50;26.10;;;;;;5030941;28;20418;-88
2022/06/01 07:35:13;;;;;;;;;;;32.50;26.00;;;;;;5030651;28;19929;-87
2022/06/01 07:43:10;;;;;;;;;;;32.10;26.20;;;;;;5026268;28;19940;-88
2022/06/01 07:45:37;;;;;;;;;;;32.00;26.20;;;;;;5031281;28;19921;-88
2022/06/01 07:48:03;;;;;;;;;;;31.90;26.40;;;;;;5021277;28;20420;-87
2022/06/01 07:50:30;;;;;;;;;;;31.90;26.40;;;;;;5028072;28;19921;-86
2022/06/01 07:52:56;;;;;;;;;;;31.80;25.90;;;;;;5022450;28;19917;-87
2022/06/01 07:55:21;;;;;;;;;;;31.70;25.20;;;;;;5030453;28;20365;-87
2022/06/01 07:57:47;;;;;;;;;;;31.70;25.60;;;;;;5025158;28;20014;-87
2022/06/01 08:00:12;;;;;;;;;;;31.80;26.20;;;;;;5018055;28;20365;-87
2022/06/01 08:02:38;;;;;;;;;;;32.00;26.20;;;;;;5022496;28;20250;-87
2022/06/01 08:05:05;;;;;;;;;;;32.20;25.70;;;;;;5020633;28;20273;-87
2022/06/01 08:07:30;;;;;;;;;;;32.40;25.40;;;;;;5015665;28;19970;-88
2022/06/01 08:09:56;;;;;;;;;;;32.50;25.50;;;;;;5012420;28;20376;-88
2022/06/01 08:15:08;;;;;;;;;;;32.40;25.50;;;;;;5030484;28;20050;-85
2022/06/01 08:17:33;;;;;;;;;;;32.20;25.50;;;;;;5030435;28;19967;-85
2022/06/01 08:19:59;;;;;;;;;;;32.00;25.50;;;;;;5028848;28;19956;-85
2022/06/01 08:22:24;;;;;;;;;;;31.80;25.60;;;;;;5027032;28;19917;-87
2022/06/01 08:24:51;;;;;;;;;;;31.50;25.70;;;;;;5020912;28;19978;-87
2022/06/01 08:27:16;;;;;;;;;;;31.40;26.00;;;;;;5022210;28;19948;-87
2022/06/01 08:29:42;;;;;;;;;;;31.40;26.10;;;;;;5030795;28;19959;-87
2022/06/01 08:32:07;;;;;;;;;;;31.40;25.80;;;;;;5003628;28;19921;-86
2022/06/01 08:34:35;;;;;;;;;;;31.30;25.70;;;;;;5022742;28;20615;-87
2022/06/01 08:37:00;;;;;;;;;;;31.10;25.70;;;;;;5033295;28;19921;-87
2022/06/01 08:39:26;;;;;;;;;;;30.80;25.80;;;;;;5034212;28;19917;-87
2022/06/01 08:41:52;;;;;;;;;;;30.70;25.90;;;;;;5013838;28;19924;-87
2022/06/01 08:44:23;;;;;;;;;;;30.60;26.20;;;;;;5033804;28;19999;-87
2022/06/01 08:46:49;;;;;;;;;;;30.50;26.00;;;;;;5019325;28;19928;-87
2022/06/01 08:49:19;;;;;;;;;;;30.30;25.80;;;;;;5034196;28;19920;-88
2022/06/01 08:51:45;;;;;;;;;;;30.20;25.90;;;;;;5028251;28;20020;-87
2022/06/01 08:54:10;;;;;;;;;;;30.30;26.30;;;;;;5021490;28;19931;-87
2022/06/01 08:56:40;;;;;;;;;;;30.80;26.50;;;;;;5020171;28;19913;-87
2022/06/01 08:59:35;;;;;;;;;;;31.20;26.10;;;;;;5032816;28;19971;-87
2022/06/01 09:02:08;;;;;;;;;;;31.50;25.70;;;;;;5017106;28;20036;-87
2022/06/01 09:04:43;;;;;;;;;;;31.60;25.30;;;;;;5034550;28;19924;-87
2022/06/01 09:07:11;;;;;;;;;;;31.40;25.70;;;;;;5026835;28;19917;-91
2022/06/01 09:09:44;;;;;;;;;;;31.10;26.30;;;;;;5024561;28;19966;-88
2022/06/01 09:12:09;;;;;;;;;;;30.70;27.10;;;;;;5029563;28;19956;-86
2022/06/01 09:14:37;;;;;;;;;;;30.10;28.40;;;;;;5033367;28;19964;-87
2022/06/01 09:17:03;;;;;;;;;;;29.50;30.30;;;;;;5033235;28;19913;-87
2022/06/01 09:22:37;;;;;;;;;;;28.90;31.30;;;;;;5033497;28;20388;-87
2022/06/01 09:25:02;;;;;;;;;;;28.30;32.50;;;;;;5035977;28;19936;-87
2022/06/01 09:27:36;;;;;;;;;;;28.40;32.70;;;;;;5018545;28;19919;-87
2022/06/01 09:30:16;;;;;;;;;;;28.90;32.00;;;;;;5032965;28;19931;-88
2022/06/01 09:32:57;;;;;;;;;;;29.30;31.10;;;;;;5022007;28;19921;-87
2022/06/01 09:35:27;;;;;;;;;;;30.10;30.60;;;;;;5025104;28;19925;-87
2022/06/01 09:37:52;;;;;;;;;;;30.90;29.70;;;;;;5033395;28;19917;-87
2022/06/01 09:40:20;;;;;;;;;;;31.30;28.70;;;;;;5033492;28;19921;-87
2022/06/01 09:42:51;;;;;;;;;;;31.40;28.10;;;;;;5030856;28;19924;-86
2022/06/01 09:45:24;;;;;;;;;;;31.50;27.80;;;;;;5021173;28;19932;-86
2022/06/01 09:47:50;;;;;;;;;;;31.60;27.60;;;;;;5032688;28;19959;-86
2022/06/01 09:50:22;;;;;;;;;;;31.50;27.40;;;;;;5020117;28;19921;-86
2022/06/01 09:52:49;;;;;;;;;;;31.60;27.40;;;;;;5033166;28;20023;-86
2022/06/01 09:55:19;;;;;;;;;;;32.30;27.40;;;;;;5030407;28;20008;-85
2022/06/01 09:57:56;;;;;;;;;;;33.10;26.10;;;;;;5019734;28;19947;-85
2022/06/01 10:06:25;;;;;;;;;;;35.20;23.30;;;;;;5032755;28;20737;-86
2022/06/01 10:08:55;;;;;;;;;;;35.80;22.00;;;;;;5003759;28;20387;-85
2022/06/01 10:11:21;;;;;;;;;;;36.00;21.90;;;;;;5022832;28;20321;-87
2022/06/01 10:13:51;;;;;;;;;;;36.40;21.60;;;;;;5032852;28;19975;-87
2022/06/01 10:16:35;;;;;;;;;;;37.00;21.30;;;;;;5032153;28;20361;-87
2022/06/01 10:19:01;;;;;;;;;;;37.60;20.30;;;;;;5041126;28;19917;-87
2022/06/01 10:21:29;;;;;;;;;;;38.10;19.80;;;;;;5019879;28;19945;-87
2022/06/01 10:24:01;;;;;;;;;;;38.20;18.90;;;;;;5032025;28;19913;-87
2022/06/01 10:26:30;;;;;;;;;;;38.20;18.60;;;;;;5022585;28;20324;-87
2022/06/01 10:28:58;;;;;;;;;;;37.80;18.30;;;;;;5020960;28;20057;-87
2022/06/01 10:31:42;;;;;;;;;;;37.30;18.40;;;;;;5031564;28;19924;-87
2022/06/01 10:34:15;;;;;;;;;;;36.70;18.70;;;;;;5031697;28;19925;-86
2022/06/01 10:36:48;;;;;;;;;;;36.20;19.00;;;;;;5022889;28;20016;-87
2022/06/01 10:39:19;;;;;;;;;;;35.30;21.80;;;;;;5032457;28;20407;-87
2022/06/01 10:42:03;;;;;;;;;;;34.30;25.70;;;;;;5033335;28;19921;-88
2022/06/01 10:44:40;;;;;;;;;;;32.90;34.10;;;;;;5021549;28;20362;-87
2022/06/01 10:47:10;;;;;;;;;;;31.50;41.70;;;;;;5032527;28;19963;-87
2022/06/01 10:50:16;;;;;;;;;;;30.70;44.90;;;;;;5019486;28;20357;-86
2022/06/01 10:52:59;;;;;;;;;;;30.20;47.40;;;;;;4966108;28;19921;-87
2022/06/01 10:55:25;;;;;;;;;;;29.50;48.40;;;;;;4949118;28;20009;-87
2022/06/01 10:57:51;;;;;;;;;;;29.10;49.30;;;;;;4985227;28;19957;-87
2022/06/01 11:00:18;;;;;;;;;;;29.30;52.20;;;;;;5044563;28;19909;-87
2022/06/01 11:02:50;;;;;;;;;;;30.00;53.90;;;;;;5019935;28;19931;-87
2022/06/01 11:05:38;;;;;;;;;;;30.20;52.80;;;;;;5034394;28;19917;-86
2022/06/01 11:08:18;;;;;;;;;;;30.00;51.90;;;;;;5029635;28;19985;-88
2022/06/01 11:10:55;;;;;;;;;;;30.00;53.50;;;;;;5020188;28;19980;-88
2022/06/01 11:13:33;;;;;;;;;;;30.30;53.40;;;;;;5034246;28;20297;-87
2022/06/01 11:16:14;;;;;;;;;;;30.20;49.60;;;;;;5032756;28;19940;-88
2022/06/01 11:18:54;;;;;;;;;;;30.30;50.50;;;;;;5033556;28;19939;-86
2022/06/01 11:21:31;;;;;;;;;;;30.50;50.90;;;;;;5018982;28;19921;-86
2022/06/01 11:24:15;;;;;;;;;;;30.90;51.10;;;;;;5015203;28;19940;-86
2022/06/01 11:26:51;;;;;;;;;;;31.40;52.90;;;;;;5024291;28;19932;-87
2022/06/01 11:29:20;;;;;;;;;;;32.50;52.50;;;;;;5024799;28;19916;-88
2022/06/01 11:31:49;;;;;;;;;;;33.80;50.60;;;;;;5032515;28;19921;-87
2022/06/01 11:34:14;;;;;;;;;;;34.30;47.00;;;;;;5028272;28;19917;-87
2022/06/01 11:37:04;;;;;;;;;;;34.10;40.40;;;;;;5015037;28;19945;-86
2022/06/01 11:39:52;;;;;;;;;;;33.70;44.10;;;;;;5007911;28;19925;-87
2022/06/01 11:42:27;;;;;;;;;;;33.10;45.20;;;;;;5015278;28;19917;-87
2022/06/01 11:45:00;;;;;;;;;;;32.90;45.40;;;;;;5024264;28;19944;-87
2022/06/01 11:47:32;;;;;;;;;;;33.40;39.70;;;;;;5019463;28;19923;-87
2022/06/01 11:50:10;;;;;;;;;;;33.00;35.90;;;;;;5021882;28;19993;-86
2022/06/01 11:52:45;;;;;;;;;;;32.30;36.90;;;;;;5021322;28;19917;-86
2022/06/01 11:55:19;;;;;;;;;;;31.70;38.80;;;;;;5017680;28;19921;-87
2022/06/01 11:57:50;;;;;;;;;;;31.00;38.20;;;;;;5019788;28;19912;-86
2022/06/01 12:00:19;;;;;;;;;;;30.50;38.30;;;;;;5036736;28;19925;-87
2022/06/01 12:02:50;;;;;;;;;;;30.20;40.50;;;;;;5018231;28;19920;-87
2022/06/01 12:05:29;;;;;;;;;;;30.10;40.90;;;;;;5029735;28;19917;-87
2022/06/01 12:07:57;;;;;;;;;;;29.80;40.50;;;;;;5036747;28;19939;-88
2022/06/01 12:10:28;;;;;;;;;;;29.10;44.80;;;;;;5025385;28;19913;-89
2022/06/01 12:12:58;;;;;;;;;;;28.10;47.30;;;;;;5018678;28;19946;-86
2022/06/01 12:15:32;;;;;;;;;;;26.80;47.80;;;;;;5036108;28;19921;-88
2022/06/01 12:18:19;;;;;;;;;;;25.60;50.20;;;;;;5034865;28;19914;-87
2022/06/01 12:20:52;;;;;;;;;;;24.40;51.50;;;;;;5036219;28;19955;-88
2022/06/01 12:29:07;;;;;;;;;;;23.00;57.20;;;;;;5035837;28;19927;-88
2022/06/01 12:31:38;;;;;;;;;;;23.20;60.20;;;;;;5035414;28;20269;-89
2022/06/01 12:34:24;;;;;;;;;;;24.10;60.80;;;;;;5035929;28;19945;-88
2022/06/01 12:37:08;;;;;;;;;;;24.30;60.40;;;;;;5018475;28;20008;-87
2022/06/01 12:39:40;;;;;;;;;;;24.80;60.60;;;;;;5038093;28;19917;-89
2022/06/01 12:42:26;;;;;;;;;;;25.00;60.40;;;;;;5024132;28;20053;-87
2022/06/01 12:44:52;;;;;;;;;;;25.20;60.20;;;;;;5037684;28;19924;-87
2022/06/01 12:47:37;;;;;;;;;;;25.40;61.20;;;;;;5028544;28;19913;-90
2022/06/01 12:50:08;;;;;;;;;;;25.60;61.50;;;;;;5026936;28;19917;-88
2022/06/01 12:52:34;;;;;;;;;;;25.70;61.60;;;;;;5035638;28;19967;-88
2022/06/01 12:55:00;;;;;;;;;;;25.60;61.30;;;;;;5034834;28;19925;-88
2022/06/01 12:57:31;;;;;;;;;;;25.50;61.40;;;;;;5024813;28;19955;-88
2022/06/01 13:00:02;;;;;;;;;;;25.40;61.00;;;;;;5035733;28;19928;-88
2022/06/01 13:02:32;;;;;;;;;;;25.20;60.20;;;;;;5018095;28;20055;-89
2022/06/01 13:04:57;;;;;;;;;;;24.80;58.80;;;;;;5022405;28;20309;-87
2022/06/01 13:07:26;;;;;;;;;;;24.40;57.30;;;;;;5034459;28;19975;-89
2022/06/01 13:10:24;;;;;;;;;;;24.00;57.60;;;;;;5026236;28;20362;-87
2022/06/01 13:12:59;;;;;;;;;;;23.50;57.50;;;;;;4970754;28;19913;-88
2022/06/01 13:15:26;;;;;;;;;;;23.10;58.20;;;;;;5027022;28;19921;-88
2022/06/01 13:17:56;;;;;;;;;;;22.80;59.10;;;;;;5035647;28;19916;-89
2022/06/01 13:20:37;;;;;;;;;;;22.40;59.60;;;;;;5023163;28;20375;-88
2022/06/01 13:23:18;;;;;;;;;;;22.00;60.30;;;;;;5015477;28;20353;-89
2022/06/01 13:25:44;;;;;;;;;;;21.80;61.60;;;;;;4999148;28;19953;-89
2022/06/01 13:28:10;;;;;;;;;;;21.60;62.20;;;;;;5041437;28;20004;-88
2022/06/01 13:30:36;;;;;;;;;;;21.60;62.80;;;;;;5035789;28;19917;-87
2022/06/01 13:33:04;;;;;;;;;;;21.70;63.10;;;;;;5019753;28;19951;-88
2022/06/01 13:35:30;;;;;;;;;;;21.80;63.60;;;;;;5034369;28;19935;-88
2022/06/01 13:37:56;;;;;;;;;;;22.10;64.00;;;;;;5023744;28;19987;-88
2022/06/01 13:40:27;;;;;;;;;;;22.40;64.40;;;;;;5033290;28;19925;-87
2022/06/01 13:43:19;;;;;;;;;;;22.70;64.40;;;;;;5017862;28;19999;-88
2022/06/01 13:45:53;;;;;;;;;;;23.00;64.50;;;;;;5030164;28;19928;-87
2022/06/01 13:48:37;;;;;;;;;;;23.30;64.10;;;;;;5019605;28;19917;-87
2022/06/01 13:51:08;;;;;;;;;;;23.60;63.90;;;;;;5017197;28;19928;-86
2022/06/01 13:53:46;;;;;;;;;;;23.80;63.70;;;;;;5031763;28;19917;-87
2022/06/01 13:56:11;;;;;;;;;;;24.30;64.20;;;;;;5033186;28;19949;-87
2022/06/01 13:58:51;;;;;;;;;;;25.50;63.10;;;;;;5023533;28;19920;-87
2022/06/01 14:01:26;;;;;;;;;;;25.80;61.90;;;;;;5029024;28;19928;-88
2022/06/01 14:03:56;;;;;;;;;;;25.80;61.70;;;;;;5017357;28;19913;-88
2022/06/01 14:06:31;;;;;;;;;;;25.50;60.70;;;;;;5033550;28;19926;-87
2022/06/01 14:08:57;;;;;;;;;;;25.10;59.10;;;;;;5019678;28;19917;-87
2022/06/01 14:11:25;;;;;;;;;;;24.50;58.10;;;;;;5023830;28;20636;-87
2022/06/01 14:13:51;;;;;;;;;;;23.90;57.60;;;;;;5021261;28;20281;-89
2022/06/01 14:16:17;;;;;;;;;;;23.20;55.80;;;;;;5022103;28;19925;-88
2022/06/01 14:18:56;;;;;;;;;;;22.30;55.40;;;;;;5027776;28;20366;-89
2022/06/01 14:21:21;;;;;;;;;;;21.30;55.50;;;;;;5014313;28;20300;-88
2022/06/01 14:23:49;;;;;;;;;;;20.70;56.60;;;;;;5034860;28;19920;-88
2022/06/01 14:28:59;;;;;;;;;;;19.80;59.20;;;;;;5034860;28;19928;-89
2022/06/01 14:31:26;;;;;;;;;;;19.60;60.40;;;;;;5017392;28;19917;-89
2022/06/01 14:33:52;;;;;;;;;;;19.50;61.50;;;;;;5017832;28;19963;-89
2022/06/01 14:36:17;;;;;;;;;;;19.60;62.50;;;;;;5016941;28;20301;-88
2022/06/01 14:38:43;;;;;;;;;;;19.80;63.20;;;;;;5018411;28;19936;-88
2022/06/01 14:41:14;;;;;;;;;;;20.00;63.20;;;;;;5031789;28;19926;-88
2022/06/01 14:43:40;;;;;;;;;;;20.10;63.30;;;;;;5016326;28;19917;-88
2022/06/01 14:46:06;;;;;;;;;;;20.20;63.40;;;;;;5032101;28;19921;-89
2022/06/01 14:48:32;;;;;;;;;;;20.30;63.50;;;;;;5017744;28;19984;-89
2022/06/01 14:51:03;;;;;;;;;;;20.30;63.70;;;;;;5007422;28;20010;-89
2022/06/01 14:53:31;;;;;;;;;;;20.30;63.90;;;;;;5033304;28;19919;-89
2022/06/01 14:55:57;;;;;;;;;;;20.30;64.30;;;;;;5035680;28;20018;-89
2022/06/01 14:58:23;;;;;;;;;;;20.40;64.30;;;;;;5020086;28;20312;-89
2022/06/01 15:00:50;;;;;;;;;;;20.40;64.00;;;;;;5017359;28;20157;-89